sensor_id;sensor_type;location;lat;lon;timestamp;temperature;humidity
65598;SHT31;52267;51.984;20.956;2023-07-09T00:01:17;15.44;69.55
65598;SHT31;52267;51.984;20.956;2023-07-09T00:03:46;15.42;69.53
65598;SHT31;52267;51.984;20.956;2023-07-09T00:06:18;15.37;69.37
65598;SHT31;52267;51.984;20.956;2023-07-09T00:08:46;15.33;69.09
65598;SHT31;52267;51.984;20.956;2023-07-09T00:11:15;15.29;69.09
65598;SHT31;52267;51.984;20.956;2023-07-09T00:13:43;15.28;69.33
65598;SHT31;52267;51.984;20.956;2023-07-09T00:16:12;15.25;69.24
65598;SHT31;52267;51.984;20.956;2023-07-09T00:18:41;15.21;69.52
65598;SHT31;52267;51.984;20.956;2023-07-09T00:21:09;15.16;69.64
65598;SHT31;52267;51.984;20.956;2023-07-09T00:23:36;15.14;69.67
65598;SHT31;52267;51.984;20.956;2023-07-09T00:26:10;15.11;69.75
65598;SHT31;52267;51.984;20.956;2023-07-09T00:28:40;15.07;69.90
65598;SHT31;52267;51.984;20.956;2023-07-09T00:31:10;15.02;69.88
65598;SHT31;52267;51.984;20.956;2023-07-09T00:33:41;14.98;69.84
65598;SHT31;52267;51.984;20.956;2023-07-09T00:36:20;14.94;70.03
65598;SHT31;52267;51.984;20.956;2023-07-09T00:38:54;14.90;70.36
65598;SHT31;52267;51.984;20.956;2023-07-09T00:41:25;14.86;70.03
65598;SHT31;52267;51.984;20.956;2023-07-09T00:43:54;14.83;70.12
65598;SHT31;52267;51.984;20.956;2023-07-09T00:48:58;14.81;69.92
65598;SHT31;52267;51.984;20.956;2023-07-09T00:51:32;14.81;70.08
65598;SHT31;52267;51.984;20.956;2023-07-09T00:54:07;14.80;69.87
65598;SHT31;52267;51.984;20.956;2023-07-09T00:57:00;14.73;70.18
65598;SHT31;52267;51.984;20.956;2023-07-09T00:59:32;14.72;70.09
65598;SHT31;52267;51.984;20.956;2023-07-09T01:02:00;14.68;70.18
65598;SHT31;52267;51.984;20.956;2023-07-09T01:04:27;14.64;70.28
65598;SHT31;52267;51.984;20.956;2023-07-09T01:06:56;14.58;70.56
65598;SHT31;52267;51.984;20.956;2023-07-09T01:09:23;14.55;70.45
65598;SHT31;52267;51.984;20.956;2023-07-09T01:11:52;14.56;70.56
65598;SHT31;52267;51.984;20.956;2023-07-09T01:14:23;14.56;70.65
65598;SHT31;52267;51.984;20.956;2023-07-09T01:16:53;14.53;70.58
65598;SHT31;52267;51.984;20.956;2023-07-09T01:19:28;14.51;70.57
65598;SHT31;52267;51.984;20.956;2023-07-09T01:22:06;14.48;70.69
65598;SHT31;52267;51.984;20.956;2023-07-09T01:24:53;14.44;70.72
65598;SHT31;52267;51.984;20.956;2023-07-09T01:27:34;14.38;71.09
65598;SHT31;52267;51.984;20.956;2023-07-09T01:30:08;14.36;71.12
65598;SHT31;52267;51.984;20.956;2023-07-09T01:32:41;14.36;71.01
65598;SHT31;52267;51.984;20.956;2023-07-09T01:35:13;14.34;70.98
65598;SHT31;52267;51.984;20.956;2023-07-09T01:37:41;14.30;70.92
65598;SHT31;52267;51.984;20.956;2023-07-09T01:40:10;14.28;70.97
65598;SHT31;52267;51.984;20.956;2023-07-09T01:42:41;14.28;71.36
65598;SHT31;52267;51.984;20.956;2023-07-09T01:45:09;14.26;71.17
65598;SHT31;52267;51.984;20.956;2023-07-09T01:47:37;14.23;71.46
65598;SHT31;52267;51.984;20.956;2023-07-09T01:50:05;14.19;71.54
65598;SHT31;52267;51.984;20.956;2023-07-09T01:52:33;14.19;71.45
65598;SHT31;52267;51.984;20.956;2023-07-09T01:55:01;14.18;71.49
65598;SHT31;52267;51.984;20.956;2023-07-09T01:57:29;14.15;71.60
65598;SHT31;52267;51.984;20.956;2023-07-09T02:00:01;14.14;71.57
65598;SHT31;52267;51.984;20.956;2023-07-09T02:02:37;14.11;71.85
65598;SHT31;52267;51.984;20.956;2023-07-09T02:05:14;14.12;71.68
65598;SHT31;52267;51.984;20.956;2023-07-09T02:07:46;14.11;71.79
65598;SHT31;52267;51.984;20.956;2023-07-09T02:10:16;14.11;71.68
65598;SHT31;52267;51.984;20.956;2023-07-09T02:12:44;14.09;71.78
65598;SHT31;52267;51.984;20.956;2023-07-09T02:15:12;14.05;71.95
65598;SHT31;52267;51.984;20.956;2023-07-09T02:17:40;14.01;72.18
65598;SHT31;52267;51.984;20.956;2023-07-09T02:20:08;13.98;72.04
65598;SHT31;52267;51.984;20.956;2023-07-09T02:22:37;13.99;71.91
65598;SHT31;52267;51.984;20.956;2023-07-09T02:25:06;13.98;71.89
65598;SHT31;52267;51.984;20.956;2023-07-09T02:27:34;14.01;72.09
65598;SHT31;52267;51.984;20.956;2023-07-09T02:30:04;14.01;72.20
65598;SHT31;52267;51.984;20.956;2023-07-09T02:32:33;14.00;72.05
65598;SHT31;52267;51.984;20.956;2023-07-09T02:35:00;14.00;71.82
65598;SHT31;52267;51.984;20.956;2023-07-09T02:37:27;13.99;71.85
65598;SHT31;52267;51.984;20.956;2023-07-09T02:39:54;14.01;72.03
65598;SHT31;52267;51.984;20.956;2023-07-09T02:42:22;14.01;72.34
65598;SHT31;52267;51.984;20.956;2023-07-09T02:44:50;14.01;72.22
65598;SHT31;52267;51.984;20.956;2023-07-09T02:47:18;14.04;72.38
65598;SHT31;52267;51.984;20.956;2023-07-09T02:49:45;14.04;72.29
65598;SHT31;52267;51.984;20.956;2023-07-09T02:52:13;14.07;72.32
65598;SHT31;52267;51.984;20.956;2023-07-09T02:54:40;14.10;72.36
65598;SHT31;52267;51.984;20.956;2023-07-09T02:57:07;14.14;72.52
65598;SHT31;52267;51.984;20.956;2023-07-09T02:59:34;14.16;72.47
65598;SHT31;52267;51.984;20.956;2023-07-09T03:02:02;14.18;72.38
65598;SHT31;52267;51.984;20.956;2023-07-09T03:04:30;14.21;72.46
65598;SHT31;52267;51.984;20.956;2023-07-09T03:06:59;14.24;72.44
65598;SHT31;52267;51.984;20.956;2023-07-09T03:09:27;14.27;72.48
65598;SHT31;52267;51.984;20.956;2023-07-09T03:11:55;14.30;72.51
65598;SHT31;52267;51.984;20.956;2023-07-09T03:14:22;14.35;72.43
65598;SHT31;52267;51.984;20.956;2023-07-09T03:16:49;14.39;72.44
65598;SHT31;52267;51.984;20.956;2023-07-09T03:19:17;14.44;72.58
65598;SHT31;52267;51.984;20.956;2023-07-09T03:21:44;14.52;72.59
65598;SHT31;52267;51.984;20.956;2023-07-09T03:24:11;14.56;72.66
65598;SHT31;52267;51.984;20.956;2023-07-09T03:26:45;14.63;72.76
65598;SHT31;52267;51.984;20.956;2023-07-09T03:29:13;14.69;72.71
65598;SHT31;52267;51.984;20.956;2023-07-09T03:31:40;14.74;72.80
65598;SHT31;52267;51.984;20.956;2023-07-09T03:34:07;14.82;72.80
65598;SHT31;52267;51.984;20.956;2023-07-09T03:36:34;14.89;72.78
65598;SHT31;52267;51.984;20.956;2023-07-09T03:39:04;14.94;72.81
65598;SHT31;52267;51.984;20.956;2023-07-09T03:41:32;15.01;72.92
65598;SHT31;52267;51.984;20.956;2023-07-09T03:44:00;15.08;72.89
65598;SHT31;52267;51.984;20.956;2023-07-09T03:46:27;15.17;72.90
65598;SHT31;52267;51.984;20.956;2023-07-09T03:48:54;15.27;72.93
65598;SHT31;52267;51.984;20.956;2023-07-09T03:51:22;15.37;73.03
65598;SHT31;52267;51.984;20.956;2023-07-09T03:53:49;15.46;72.83
65598;SHT31;52267;51.984;20.956;2023-07-09T03:56:16;15.58;72.81
65598;SHT31;52267;51.984;20.956;2023-07-09T03:58:43;15.67;72.86
65598;SHT31;52267;51.984;20.956;2023-07-09T04:01:10;15.79;72.74
65598;SHT31;52267;51.984;20.956;2023-07-09T04:03:37;15.90;72.66
65598;SHT31;52267;51.984;20.956;2023-07-09T04:06:04;15.99;72.49
65598;SHT31;52267;51.984;20.956;2023-07-09T04:08:31;16.09;72.44
65598;SHT31;52267;51.984;20.956;2023-07-09T04:10:59;16.21;72.13
65598;SHT31;52267;51.984;20.956;2023-07-09T04:13:27;16.33;72.02
65598;SHT31;52267;51.984;20.956;2023-07-09T04:15:55;16.46;71.98
65598;SHT31;52267;51.984;20.956;2023-07-09T04:18:23;16.58;71.73
65598;SHT31;52267;51.984;20.956;2023-07-09T04:20:50;16.68;71.60
65598;SHT31;52267;51.984;20.956;2023-07-09T04:23:18;16.79;71.46
65598;SHT31;52267;51.984;20.956;2023-07-09T04:25:46;16.92;71.25
65598;SHT31;52267;51.984;20.956;2023-07-09T04:28:14;17.02;71.09
65598;SHT31;52267;51.984;20.956;2023-07-09T04:30:48;17.13;71.05
65598;SHT31;52267;51.984;20.956;2023-07-09T04:33:17;17.23;70.93
65598;SHT31;52267;51.984;20.956;2023-07-09T04:35:46;17.33;70.77
65598;SHT31;52267;51.984;20.956;2023-07-09T04:38:14;17.44;70.59
65598;SHT31;52267;51.984;20.956;2023-07-09T04:40:42;17.53;70.42
65598;SHT31;52267;51.984;20.956;2023-07-09T04:43:09;17.62;70.46
65598;SHT31;52267;51.984;20.956;2023-07-09T04:45:37;17.69;70.25
65598;SHT31;52267;51.984;20.956;2023-07-09T04:48:04;17.78;69.97
65598;SHT31;52267;51.984;20.956;2023-07-09T04:50:32;17.88;69.67
65598;SHT31;52267;51.984;20.956;2023-07-09T04:52:59;17.98;69.49
65598;SHT31;52267;51.984;20.956;2023-07-09T04:55:27;18.08;69.16
65598;SHT31;52267;51.984;20.956;2023-07-09T04:57:54;18.18;69.02
65598;SHT31;52267;51.984;20.956;2023-07-09T05:00:21;18.28;68.72
65598;SHT31;52267;51.984;20.956;2023-07-09T05:02:49;18.37;68.44
65598;SHT31;52267;51.984;20.956;2023-07-09T05:05:16;18.45;68.09
65598;SHT31;52267;51.984;20.956;2023-07-09T05:07:43;18.54;67.84
65598;SHT31;52267;51.984;20.956;2023-07-09T05:10:11;18.62;67.58
65598;SHT31;52267;51.984;20.956;2023-07-09T05:12:46;18.72;67.48
65598;SHT31;52267;51.984;20.956;2023-07-09T05:15:19;18.82;67.18
65598;SHT31;52267;51.984;20.956;2023-07-09T05:17:48;18.92;66.96
65598;SHT31;52267;51.984;20.956;2023-07-09T05:20:15;18.99;66.70
65598;SHT31;52267;51.984;20.956;2023-07-09T05:22:42;19.08;66.35
65598;SHT31;52267;51.984;20.956;2023-07-09T05:25:10;19.17;66.02
65598;SHT31;52267;51.984;20.956;2023-07-09T05:27:37;19.25;65.99
65598;SHT31;52267;51.984;20.956;2023-07-09T05:30:04;19.35;65.81
65598;SHT31;52267;51.984;20.956;2023-07-09T05:32:32;19.44;65.43
65598;SHT31;52267;51.984;20.956;2023-07-09T05:35:00;19.53;65.22
65598;SHT31;52267;51.984;20.956;2023-07-09T05:37:27;19.63;65.09
65598;SHT31;52267;51.984;20.956;2023-07-09T05:39:55;19.74;65.00
65598;SHT31;52267;51.984;20.956;2023-07-09T05:42:22;19.85;64.83
65598;SHT31;52267;51.984;20.956;2023-07-09T05:44:49;19.95;64.31
65598;SHT31;52267;51.984;20.956;2023-07-09T05:47:17;20.06;63.85
65598;SHT31;52267;51.984;20.956;2023-07-09T05:49:45;20.16;63.60
65598;SHT31;52267;51.984;20.956;2023-07-09T05:52:16;20.25;63.26
65598;SHT31;52267;51.984;20.956;2023-07-09T05:54:48;20.34;62.91
65598;SHT31;52267;51.984;20.956;2023-07-09T05:57:17;20.45;62.77
65598;SHT31;52267;51.984;20.956;2023-07-09T05:59:44;20.56;62.56
65598;SHT31;52267;51.984;20.956;2023-07-09T06:02:11;20.67;62.33
65598;SHT31;52267;51.984;20.956;2023-07-09T06:04:40;20.78;62.27
65598;SHT31;52267;51.984;20.956;2023-07-09T06:07:08;20.87;62.19
65598;SHT31;52267;51.984;20.956;2023-07-09T06:09:36;20.94;61.94
65598;SHT31;52267;51.984;20.956;2023-07-09T06:12:03;21.04;61.63
65598;SHT31;52267;51.984;20.956;2023-07-09T06:14:31;21.15;61.56
65598;SHT31;52267;51.984;20.956;2023-07-09T06:16:59;21.28;61.38
65598;SHT31;52267;51.984;20.956;2023-07-09T06:19:27;21.40;61.07
65598;SHT31;52267;51.984;20.956;2023-07-09T06:21:54;21.52;60.57
65598;SHT31;52267;51.984;20.956;2023-07-09T06:24:22;21.61;60.33
65598;SHT31;52267;51.984;20.956;2023-07-09T06:26:50;21.72;59.84
65598;SHT31;52267;51.984;20.956;2023-07-09T06:29:17;21.82;59.57
65598;SHT31;52267;51.984;20.956;2023-07-09T06:31:44;21.89;58.77
65598;SHT31;52267;51.984;20.956;2023-07-09T06:34:11;21.95;58.70
65598;SHT31;52267;51.984;20.956;2023-07-09T06:36:38;22.05;58.58
65598;SHT31;52267;51.984;20.956;2023-07-09T06:39:05;22.16;58.28
65598;SHT31;52267;51.984;20.956;2023-07-09T06:41:32;22.24;56.99
65598;SHT31;52267;51.984;20.956;2023-07-09T06:44:05;22.33;57.36
65598;SHT31;52267;51.984;20.956;2023-07-09T06:46:34;22.48;57.27
65598;SHT31;52267;51.984;20.956;2023-07-09T06:49:02;22.61;56.77
65598;SHT31;52267;51.984;20.956;2023-07-09T06:51:32;22.75;56.31
65598;SHT31;52267;51.984;20.956;2023-07-09T06:53:59;22.91;56.41
65598;SHT31;52267;51.984;20.956;2023-07-09T06:56:26;23.05;56.22
65598;SHT31;52267;51.984;20.956;2023-07-09T06:58:53;23.15;55.65
65598;SHT31;52267;51.984;20.956;2023-07-09T07:01:20;23.23;54.75
65598;SHT31;52267;51.984;20.956;2023-07-09T07:03:48;23.37;54.89
65598;SHT31;52267;51.984;20.956;2023-07-09T07:06:15;23.52;54.35
65598;SHT31;52267;51.984;20.956;2023-07-09T07:08:42;23.68;54.12
65598;SHT31;52267;51.984;20.956;2023-07-09T07:11:10;23.82;53.74
65598;SHT31;52267;51.984;20.956;2023-07-09T07:13:38;23.98;53.31
65598;SHT31;52267;51.984;20.956;2023-07-09T07:16:07;24.17;52.94
65598;SHT31;52267;51.984;20.956;2023-07-09T07:18:37;24.36;52.54
65598;SHT31;52267;51.984;20.956;2023-07-09T07:21:05;24.60;52.49
65598;SHT31;52267;51.984;20.956;2023-07-09T07:23:32;24.85;52.01
65598;SHT31;52267;51.984;20.956;2023-07-09T07:26:00;25.08;51.17
65598;SHT31;52267;51.984;20.956;2023-07-09T07:28:27;25.29;50.82
65598;SHT31;52267;51.984;20.956;2023-07-09T07:30:58;25.42;49.75
65598;SHT31;52267;51.984;20.956;2023-07-09T07:33:26;25.63;50.42
65598;SHT31;52267;51.984;20.956;2023-07-09T07:35:53;25.76;49.50
65598;SHT31;52267;51.984;20.956;2023-07-09T07:38:21;25.81;48.79
65598;SHT31;52267;51.984;20.956;2023-07-09T07:40:48;26.01;48.74
65598;SHT31;52267;51.984;20.956;2023-07-09T07:43:15;26.22;48.16
65598;SHT31;52267;51.984;20.956;2023-07-09T07:45:42;26.31;47.28
65598;SHT31;52267;51.984;20.956;2023-07-09T07:48:10;26.35;47.09
65598;SHT31;52267;51.984;20.956;2023-07-09T07:50:37;26.48;47.55
65598;SHT31;52267;51.984;20.956;2023-07-09T07:53:04;26.64;46.54
65598;SHT31;52267;51.984;20.956;2023-07-09T07:55:31;26.66;45.28
65598;SHT31;52267;51.984;20.956;2023-07-09T07:57:58;26.81;46.34
65598;SHT31;52267;51.984;20.956;2023-07-09T08:00:29;26.92;45.56
65598;SHT31;52267;51.984;20.956;2023-07-09T08:02:57;27.11;45.70
65598;SHT31;52267;51.984;20.956;2023-07-09T08:05:24;27.24;45.40
65598;SHT31;52267;51.984;20.956;2023-07-09T08:07:51;27.33;45.57
65598;SHT31;52267;51.984;20.956;2023-07-09T08:10:18;27.51;44.91
65598;SHT31;52267;51.984;20.956;2023-07-09T08:12:46;27.76;44.29
65598;SHT31;52267;51.984;20.956;2023-07-09T08:15:13;28.05;44.29
65598;SHT31;52267;51.984;20.956;2023-07-09T08:17:40;28.09;43.24
65598;SHT31;52267;51.984;20.956;2023-07-09T08:20:07;28.03;43.34
65598;SHT31;52267;51.984;20.956;2023-07-09T08:22:35;28.05;42.49
65598;SHT31;52267;51.984;20.956;2023-07-09T08:25:02;28.19;43.18
65598;SHT31;52267;51.984;20.956;2023-07-09T08:27:29;28.25;43.15
65598;SHT31;52267;51.984;20.956;2023-07-09T08:29:56;28.35;42.90
65598;SHT31;52267;51.984;20.956;2023-07-09T08:32:23;28.40;41.99
65598;SHT31;52267;51.984;20.956;2023-07-09T08:34:50;28.36;42.01
65598;SHT31;52267;51.984;20.956;2023-07-09T08:37:17;28.40;41.95
65598;SHT31;52267;51.984;20.956;2023-07-09T08:39:44;28.68;41.78
65598;SHT31;52267;51.984;20.956;2023-07-09T08:42:13;28.85;40.35
65598;SHT31;52267;51.984;20.956;2023-07-09T08:48:04;28.78;40.87
65598;SHT31;52267;51.984;20.956;2023-07-09T08:50:47;28.86;41.12
65598;SHT31;52267;51.984;20.956;2023-07-09T08:53:21;29.17;41.12
65598;SHT31;52267;51.984;20.956;2023-07-09T08:56:00;29.35;40.47
65598;SHT31;52267;51.984;20.956;2023-07-09T08:58:31;29.58;40.03
65598;SHT31;52267;51.984;20.956;2023-07-09T09:01:05;29.59;39.30
65598;SHT31;52267;51.984;20.956;2023-07-09T09:06:34;29.29;38.34
65598;SHT31;52267;51.984;20.956;2023-07-09T09:09:03;29.38;38.72
65598;SHT31;52267;51.984;20.956;2023-07-09T09:11:45;29.46;38.44
65598;SHT31;52267;51.984;20.956;2023-07-09T09:14:36;29.61;37.96
65598;SHT31;52267;51.984;20.956;2023-07-09T09:17:14;29.58;37.09
65598;SHT31;52267;51.984;20.956;2023-07-09T09:19:46;29.68;37.78
65598;SHT31;52267;51.984;20.956;2023-07-09T09:22:24;29.94;37.20
65598;SHT31;52267;51.984;20.956;2023-07-09T09:25:21;30.17;35.49
65598;SHT31;52267;51.984;20.956;2023-07-09T09:27:59;30.29;34.75
65598;SHT31;52267;51.984;20.956;2023-07-09T09:30:27;30.28;35.37
65598;SHT31;52267;51.984;20.956;2023-07-09T09:33:00;30.25;33.68
65598;SHT31;52267;51.984;20.956;2023-07-09T09:35:37;30.23;32.84
65598;SHT31;52267;51.984;20.956;2023-07-09T09:38:20;30.14;31.87
65598;SHT31;52267;51.984;20.956;2023-07-09T09:40:49;30.19;33.29
65598;SHT31;52267;51.984;20.956;2023-07-09T09:43:18;30.33;32.71
65598;SHT31;52267;51.984;20.956;2023-07-09T09:45:48;30.40;32.94
65598;SHT31;52267;51.984;20.956;2023-07-09T09:48:20;30.46;32.10
65598;SHT31;52267;51.984;20.956;2023-07-09T09:50:57;30.51;32.01
65598;SHT31;52267;51.984;20.956;2023-07-09T09:53:28;30.69;32.21
65598;SHT31;52267;51.984;20.956;2023-07-09T09:56:03;30.72;30.61
65598;SHT31;52267;51.984;20.956;2023-07-09T09:58:32;30.80;30.59
65598;SHT31;52267;51.984;20.956;2023-07-09T10:01:01;30.87;31.40
65598;SHT31;52267;51.984;20.956;2023-07-09T10:03:32;31.04;31.48
65598;SHT31;52267;51.984;20.956;2023-07-09T10:06:13;31.07;31.15
65598;SHT31;52267;51.984;20.956;2023-07-09T10:11:31;31.28;31.05
65598;SHT31;52267;51.984;20.956;2023-07-09T10:14:26;31.16;29.67
65598;SHT31;52267;51.984;20.956;2023-07-09T10:17:13;31.11;30.08
65598;SHT31;52267;51.984;20.956;2023-07-09T10:25:51;31.85;31.08
65598;SHT31;52267;51.984;20.956;2023-07-09T10:28:32;32.14;30.31
65598;SHT31;52267;51.984;20.956;2023-07-09T10:31:28;32.24;30.19
65598;SHT31;52267;51.984;20.956;2023-07-09T10:39:59;32.97;29.87
65598;SHT31;52267;51.984;20.956;2023-07-09T10:42:35;33.13;29.21
65598;SHT31;52267;51.984;20.956;2023-07-09T10:45:12;33.07;28.97
65598;SHT31;52267;51.984;20.956;2023-07-09T10:47:44;33.12;29.65
65598;SHT31;52267;51.984;20.956;2023-07-09T10:50:17;33.13;29.24
65598;SHT31;52267;51.984;20.956;2023-07-09T10:53:14;32.84;29.18
65598;SHT31;52267;51.984;20.956;2023-07-09T10:55:59;32.61;29.06
65598;SHT31;52267;51.984;20.956;2023-07-09T11:01:37;32.42;29.11
65598;SHT31;52267;51.984;20.956;2023-07-09T11:04:10;32.37;29.76
65598;SHT31;52267;51.984;20.956;2023-07-09T11:07:04;32.43;29.14
65598;SHT31;52267;51.984;20.956;2023-07-09T11:09:39;32.32;29.45
65598;SHT31;52267;51.984;20.956;2023-07-09T11:12:14;32.29;29.55
65598;SHT31;52267;51.984;20.956;2023-07-09T11:14:55;32.35;29.51
65598;SHT31;52267;51.984;20.956;2023-07-09T11:17:29;32.52;29.34
65598;SHT31;52267;51.984;20.956;2023-07-09T11:20:00;32.63;29.30
65598;SHT31;52267;51.984;20.956;2023-07-09T11:22:36;32.87;29.55
65598;SHT31;52267;51.984;20.956;2023-07-09T11:27:45;32.78;28.81
65598;SHT31;52267;51.984;20.956;2023-07-09T11:30:24;32.81;28.78
65598;SHT31;52267;51.984;20.956;2023-07-09T11:33:01;32.67;28.30
65598;SHT31;52267;51.984;20.956;2023-07-09T11:35:47;32.51;28.15
65598;SHT31;52267;51.984;20.956;2023-07-09T11:38:21;32.26;28.31
65598;SHT31;52267;51.984;20.956;2023-07-09T11:40:52;32.28;28.84
65598;SHT31;52267;51.984;20.956;2023-07-09T11:43:32;32.39;29.00
65598;SHT31;52267;51.984;20.956;2023-07-09T11:46:11;32.49;28.61
65598;SHT31;52267;51.984;20.956;2023-07-09T11:48:43;32.64;28.97
65598;SHT31;52267;51.984;20.956;2023-07-09T11:51:18;32.85;28.81
65598;SHT31;52267;51.984;20.956;2023-07-09T11:53:53;32.68;27.70
65598;SHT31;52267;51.984;20.956;2023-07-09T11:56:22;32.62;28.49
65598;SHT31;52267;51.984;20.956;2023-07-09T11:58:51;32.64;27.72
65598;SHT31;52267;51.984;20.956;2023-07-09T12:01:30;32.44;28.20
65598;SHT31;52267;51.984;20.956;2023-07-09T12:04:08;32.34;28.32
65598;SHT31;52267;51.984;20.956;2023-07-09T12:06:41;32.37;28.37
65598;SHT31;52267;51.984;20.956;2023-07-09T12:09:13;32.41;28.66
65598;SHT31;52267;51.984;20.956;2023-07-09T12:11:47;32.65;28.71
65598;SHT31;52267;51.984;20.956;2023-07-09T12:14:17;32.90;28.67
65598;SHT31;52267;51.984;20.956;2023-07-09T12:16:49;33.00;28.26
65598;SHT31;52267;51.984;20.956;2023-07-09T12:19:19;33.00;27.65
65598;SHT31;52267;51.984;20.956;2023-07-09T12:21:52;32.95;27.95
65598;SHT31;52267;51.984;20.956;2023-07-09T12:24:25;32.87;27.24
65598;SHT31;52267;51.984;20.956;2023-07-09T12:27:02;32.75;27.53
65598;SHT31;52267;51.984;20.956;2023-07-09T12:29:42;32.85;27.55
65598;SHT31;52267;51.984;20.956;2023-07-09T12:32:11;32.88;27.13
65598;SHT31;52267;51.984;20.956;2023-07-09T12:34:41;32.88;27.66
65598;SHT31;52267;51.984;20.956;2023-07-09T12:37:12;32.88;27.15
65598;SHT31;52267;51.984;20.956;2023-07-09T12:39:41;32.82;27.35
65598;SHT31;52267;51.984;20.956;2023-07-09T12:42:14;32.85;27.90
65598;SHT31;52267;51.984;20.956;2023-07-09T12:45:04;32.77;26.92
65598;SHT31;52267;51.984;20.956;2023-07-09T12:47:32;32.63;27.53
65598;SHT31;52267;51.984;20.956;2023-07-09T12:50:00;32.49;27.24
65598;SHT31;52267;51.984;20.956;2023-07-09T12:52:34;32.31;27.62
65598;SHT31;52267;51.984;20.956;2023-07-09T12:55:19;32.17;27.27
65598;SHT31;52267;51.984;20.956;2023-07-09T12:57:49;31.98;27.16
65598;SHT31;52267;51.984;20.956;2023-07-09T13:00:18;31.72;27.65
65598;SHT31;52267;51.984;20.956;2023-07-09T13:02:50;31.69;27.79
65598;SHT31;52267;51.984;20.956;2023-07-09T13:05:25;31.74;27.61
65598;SHT31;52267;51.984;20.956;2023-07-09T13:08:02;31.84;27.66
65598;SHT31;52267;51.984;20.956;2023-07-09T13:10:30;31.90;27.20
65598;SHT31;52267;51.984;20.956;2023-07-09T13:13:05;31.87;27.33
65598;SHT31;52267;51.984;20.956;2023-07-09T13:18:11;32.07;27.07
65598;SHT31;52267;51.984;20.956;2023-07-09T13:20:41;32.06;27.64
65598;SHT31;52267;51.984;20.956;2023-07-09T13:23:17;32.24;27.59
65598;SHT31;52267;51.984;20.956;2023-07-09T13:25:51;32.33;27.18
65598;SHT31;52267;51.984;20.956;2023-07-09T13:30:55;32.60;27.10
65598;SHT31;52267;51.984;20.956;2023-07-09T13:33:43;32.63;27.03
65598;SHT31;52267;51.984;20.956;2023-07-09T13:36:12;32.67;27.01
65598;SHT31;52267;51.984;20.956;2023-07-09T13:38:39;32.66;26.29
65598;SHT31;52267;51.984;20.956;2023-07-09T13:41:11;32.62;26.55
65598;SHT31;52267;51.984;20.956;2023-07-09T13:43:44;32.76;26.91
65598;SHT31;52267;51.984;20.956;2023-07-09T13:46:14;32.99;26.78
65598;SHT31;52267;51.984;20.956;2023-07-09T13:48:42;32.97;26.71
65598;SHT31;52267;51.984;20.956;2023-07-09T13:51:19;32.96;26.54
65598;SHT31;52267;51.984;20.956;2023-07-09T13:53:53;32.88;26.61
65598;SHT31;52267;51.984;20.956;2023-07-09T13:56:24;32.99;26.57
65598;SHT31;52267;51.984;20.956;2023-07-09T13:58:51;33.07;26.72
65598;SHT31;52267;51.984;20.956;2023-07-09T14:01:21;32.92;26.68
65598;SHT31;52267;51.984;20.956;2023-07-09T14:03:57;32.67;26.76
65598;SHT31;52267;51.984;20.956;2023-07-09T14:06:27;32.57;26.96
65598;SHT31;52267;51.984;20.956;2023-07-09T14:08:54;32.44;26.82
65598;SHT31;52267;51.984;20.956;2023-07-09T14:11:21;32.21;26.87
65598;SHT31;52267;51.984;20.956;2023-07-09T14:13:48;32.14;27.12
65598;SHT31;52267;51.984;20.956;2023-07-09T14:16:18;32.25;26.97
65598;SHT31;52267;51.984;20.956;2023-07-09T14:18:46;32.23;26.99
65598;SHT31;52267;51.984;20.956;2023-07-09T14:21:15;32.19;27.22
65598;SHT31;52267;51.984;20.956;2023-07-09T14:23:52;32.28;27.34
65598;SHT31;52267;51.984;20.956;2023-07-09T14:26:20;32.32;27.49
65598;SHT31;52267;51.984;20.956;2023-07-09T14:28:50;32.29;27.69
65598;SHT31;52267;51.984;20.956;2023-07-09T14:31:19;32.33;27.62
65598;SHT31;52267;51.984;20.956;2023-07-09T14:33:51;32.30;27.48
65598;SHT31;52267;51.984;20.956;2023-07-09T14:36:18;32.25;27.77
65598;SHT31;52267;51.984;20.956;2023-07-09T14:38:45;32.17;27.82
65598;SHT31;52267;51.984;20.956;2023-07-09T14:41:21;32.18;28.10
65598;SHT31;52267;51.984;20.956;2023-07-09T14:43:57;32.19;27.76
65598;SHT31;52267;51.984;20.956;2023-07-09T14:46:25;32.07;27.60
65598;SHT31;52267;51.984;20.956;2023-07-09T14:48:52;32.13;27.72
65598;SHT31;52267;51.984;20.956;2023-07-09T14:51:19;32.14;27.51
65598;SHT31;52267;51.984;20.956;2023-07-09T14:53:46;31.90;27.44
65598;SHT31;52267;51.984;20.956;2023-07-09T14:56:14;31.87;27.76
65598;SHT31;52267;51.984;20.956;2023-07-09T14:58:41;31.96;27.91
65598;SHT31;52267;51.984;20.956;2023-07-09T15:01:17;32.04;27.55
65598;SHT31;52267;51.984;20.956;2023-07-09T15:03:47;31.99;27.94
65598;SHT31;52267;51.984;20.956;2023-07-09T15:06:14;31.88;27.49
65598;SHT31;52267;51.984;20.956;2023-07-09T15:08:41;31.66;27.57
65598;SHT31;52267;51.984;20.956;2023-07-09T15:11:08;31.54;27.59
65598;SHT31;52267;51.984;20.956;2023-07-09T15:13:36;31.53;27.61
65598;SHT31;52267;51.984;20.956;2023-07-09T15:16:04;31.46;27.61
65598;SHT31;52267;51.984;20.956;2023-07-09T15:18:31;31.52;28.18
65598;SHT31;52267;51.984;20.956;2023-07-09T15:21:03;31.48;27.90
65598;SHT31;52267;51.984;20.956;2023-07-09T15:23:30;31.44;28.53
65598;SHT31;52267;51.984;20.956;2023-07-09T15:26:12;31.42;28.46
65598;SHT31;52267;51.984;20.956;2023-07-09T15:28:40;31.28;28.62
65598;SHT31;52267;51.984;20.956;2023-07-09T15:31:11;31.29;28.61
65598;SHT31;52267;51.984;20.956;2023-07-09T15:33:38;31.17;28.33
65598;SHT31;52267;51.984;20.956;2023-07-09T15:36:09;31.18;28.56
65598;SHT31;52267;51.984;20.956;2023-07-09T15:38:38;31.10;28.61
65598;SHT31;52267;51.984;20.956;2023-07-09T15:41:17;30.99;28.75
65598;SHT31;52267;51.984;20.956;2023-07-09T15:43:47;30.91;28.97
65598;SHT31;52267;51.984;20.956;2023-07-09T15:46:18;30.87;29.10
65598;SHT31;52267;51.984;20.956;2023-07-09T15:48:47;30.79;29.12
65598;SHT31;52267;51.984;20.956;2023-07-09T15:51:16;30.76;29.13
65598;SHT31;52267;51.984;20.956;2023-07-09T15:53:43;30.63;29.18
65598;SHT31;52267;51.984;20.956;2023-07-09T15:56:26;30.62;29.60
65598;SHT31;52267;51.984;20.956;2023-07-09T15:58:56;30.65;29.54
65598;SHT31;52267;51.984;20.956;2023-07-09T16:01:25;30.62;29.73
65598;SHT31;52267;51.984;20.956;2023-07-09T16:03:59;30.67;29.82
65598;SHT31;52267;51.984;20.956;2023-07-09T16:06:29;30.62;29.59
65598;SHT31;52267;51.984;20.956;2023-07-09T16:08:56;30.60;29.67
65598;SHT31;52267;51.984;20.956;2023-07-09T16:11:23;30.60;29.51